HKE131 RCKH-VHHH
Flight info
| Callsign | HKE131 |
|---|---|
| Flight time | 1h 14m |
| Altitude | 32000 |
| Route | PARAS2A PARAS T7 WP521 G581 ELATO V522 ABBEY |
| Aircraft | A320/M-SDE3FGHIRWY/LB1 |
Departure
| Time | 2026-04-25 01:45 |
|---|---|
| Airport | Kaohsiung International Airport (RCKH) |
Arrival
| Time | 2026-04-25 02:59 |
|---|---|
| Airport | Hong Kong International Airport (VHHH) |
| Time | Latitude | Longitude | Altitude | Speed | Heading |
|---|---|---|---|---|---|
| 2026-04-25 01:11 | 22.57214 | 120.34127 | 36 ft | 0 kts | 91° |
| 2026-04-25 01:29 | 22.57214 | 120.34114 | 36 ft | 4 kts | 94° |
| 2026-04-25 01:29 | 22.57217 | 120.34085 | 36 ft | 4 kts | 92° |
| 2026-04-25 01:30 | 22.57215 | 120.34060 | 34 ft | 2 kts | 73° |
| 2026-04-25 01:30 | 22.57208 | 120.34045 | 35 ft | 4 kts | 138° |
| 2026-04-25 01:30 | 22.57211 | 120.34037 | 35 ft | 4 kts | 155° |
| 2026-04-25 01:30 | 22.57231 | 120.34040 | 36 ft | 4 kts | 204° |
| 2026-04-25 01:31 | 22.57256 | 120.34049 | 34 ft | 4 kts | 181° |
| 2026-04-25 01:31 | 22.57283 | 120.34050 | 37 ft | 4 kts | 181° |
| 2026-04-25 01:31 | 22.57310 | 120.34051 | 38 ft | 4 kts | 181° |
| 2026-04-25 01:31 | 22.57337 | 120.34052 | 37 ft | 4 kts | 182° |
| 2026-04-25 01:32 | 22.57364 | 120.34053 | 37 ft | 4 kts | 178° |
| 2026-04-25 01:32 | 22.57390 | 120.34049 | 37 ft | 4 kts | 158° |
| 2026-04-25 01:32 | 22.57409 | 120.34034 | 38 ft | 4 kts | 105° |
| 2026-04-25 01:32 | 22.57411 | 120.34027 | 38 ft | 0 kts | 92° |
| 2026-04-25 01:41 | 22.57410 | 120.34041 | 38 ft | 4 kts | 92° |
| 2026-04-25 01:41 | 22.57410 | 120.34085 | 38 ft | 8 kts | 83° |
| 2026-04-25 01:42 | 22.57461 | 120.34118 | 38 ft | 11 kts | 11° |
| 2026-04-25 01:42 | 22.57547 | 120.34114 | 38 ft | 14 kts | 329° |
| 2026-04-25 01:42 | 22.57570 | 120.34010 | 38 ft | 17 kts | 272° |
| 2026-04-25 01:42 | 22.57572 | 120.33867 | 38 ft | 21 kts | 269° |
| 2026-04-25 01:43 | 22.57579 | 120.33696 | 38 ft | 25 kts | 274° |
| 2026-04-25 01:43 | 22.57588 | 120.33543 | 38 ft | 15 kts | 284° |
| 2026-04-25 01:43 | 22.57684 | 120.33501 | 37 ft | 18 kts | 6° |
| 2026-04-25 01:43 | 22.57753 | 120.33546 | 38 ft | 7 kts | 93° |
| 2026-04-25 01:44 | 22.57749 | 120.33618 | 38 ft | 12 kts | 93° |
| 2026-04-25 01:44 | 22.57743 | 120.33846 | 39 ft | 60 kts | 92° |
| 2026-04-25 01:44 | 22.57722 | 120.34530 | 38 ft | 119 kts | 92° |
| 2026-04-25 01:44 | 22.57695 | 120.35591 | 41 ft | 162 kts | 90° |
| 2026-04-25 01:45 | 22.57669 | 120.36853 | 513 ft | 169 kts | 90° |
| 2026-04-25 01:45 | 22.57616 | 120.38147 | 1026 ft | 176 kts | 101° |
| 2026-04-25 01:45 | 22.57038 | 120.39285 | 1612 ft | 179 kts | 144° |
| 2026-04-25 01:45 | 22.55848 | 120.39612 | 2164 ft | 184 kts | 191° |
| 2026-04-25 01:46 | 22.54761 | 120.38894 | 2641 ft | 190 kts | 230° |
| 2026-04-25 01:46 | 22.53909 | 120.37819 | 3212 ft | 191 kts | 226° |
| 2026-04-25 01:46 | 22.52899 | 120.36760 | 3482 ft | 214 kts | 223° |
| 2026-04-25 01:46 | 22.51742 | 120.35643 | 4015 ft | 227 kts | 222° |
| 2026-04-25 01:47 | 22.50549 | 120.34516 | 4718 ft | 229 kts | 222° |
| 2026-04-25 01:47 | 22.49363 | 120.33401 | 5133 ft | 231 kts | 222° |
| 2026-04-25 01:47 | 22.48155 | 120.32262 | 5926 ft | 230 kts | 223° |
| 2026-04-25 01:47 | 22.46949 | 120.31121 | 6663 ft | 232 kts | 223° |
| 2026-04-25 01:48 | 22.45735 | 120.29971 | 6904 ft | 231 kts | 223° |
| 2026-04-25 01:48 | 22.44530 | 120.28830 | 6975 ft | 230 kts | 223° |
| 2026-04-25 01:48 | 22.43331 | 120.27693 | 6984 ft | 229 kts | 223° |
| 2026-04-25 01:48 | 22.42133 | 120.26556 | 6987 ft | 228 kts | 223° |
| 2026-04-25 01:49 | 22.40940 | 120.25423 | 6984 ft | 229 kts | 223° |
| 2026-04-25 01:49 | 22.39745 | 120.24286 | 6990 ft | 229 kts | 223° |
| 2026-04-25 01:49 | 22.38550 | 120.23151 | 6990 ft | 229 kts | 223° |
| 2026-04-25 01:49 | 22.37356 | 120.22017 | 6989 ft | 229 kts | 223° |
| 2026-04-25 01:50 | 22.36160 | 120.20882 | 6989 ft | 229 kts | 223° |
| 2026-04-25 01:50 | 22.34964 | 120.19749 | 6990 ft | 229 kts | 223° |
| 2026-04-25 01:50 | 22.33766 | 120.18617 | 6990 ft | 229 kts | 223° |
| 2026-04-25 01:50 | 22.32569 | 120.17484 | 6992 ft | 229 kts | 223° |
| 2026-04-25 01:51 | 22.31375 | 120.16349 | 6994 ft | 229 kts | 223° |
| 2026-04-25 01:51 | 22.30217 | 120.15175 | 6994 ft | 228 kts | 232° |
| 2026-04-25 01:51 | 22.29397 | 120.13712 | 7001 ft | 238 kts | 249° |
| 2026-04-25 01:51 | 22.28939 | 120.11875 | 7003 ft | 264 kts | 257° |
| 2026-04-25 01:52 | 22.28529 | 120.09924 | 7001 ft | 267 kts | 257° |
| 2026-04-25 01:52 | 22.28114 | 120.07964 | 6999 ft | 268 kts | 257° |
| 2026-04-25 01:52 | 22.27699 | 120.06005 | 6997 ft | 268 kts | 257° |
| 2026-04-25 01:52 | 22.27282 | 120.04046 | 7006 ft | 268 kts | 257° |
| 2026-04-25 01:53 | 22.26866 | 120.02086 | 7005 ft | 268 kts | 257° |
| 2026-04-25 01:53 | 22.26446 | 120.00123 | 7092 ft | 271 kts | 257° |
| 2026-04-25 01:53 | 22.26020 | 119.98131 | 7911 ft | 271 kts | 256° |
| 2026-04-25 01:53 | 22.25597 | 119.96151 | 8816 ft | 271 kts | 256° |
| 2026-04-25 01:54 | 22.25173 | 119.94169 | 9666 ft | 272 kts | 256° |
| 2026-04-25 01:54 | 22.24746 | 119.92174 | 10352 ft | 278 kts | 256° |
| 2026-04-25 01:54 | 22.24290 | 119.90061 | 10546 ft | 300 kts | 256° |
| 2026-04-25 01:54 | 22.23968 | 119.88570 | 10632 ft | 315 kts | 256° |
| 2026-04-25 01:55 | 22.23292 | 119.85430 | 11177 ft | 330 kts | 256° |
| 2026-04-25 01:55 | 22.22771 | 119.83004 | 11791 ft | 334 kts | 256° |
| 2026-04-25 01:55 | 22.22245 | 119.80558 | 12461 ft | 336 kts | 256° |
| 2026-04-25 01:55 | 22.21719 | 119.78097 | 13110 ft | 338 kts | 256° |
| 2026-04-25 01:56 | 22.21188 | 119.75615 | 13749 ft | 341 kts | 257° |
| 2026-04-25 01:56 | 22.20654 | 119.73117 | 14325 ft | 343 kts | 257° |
| 2026-04-25 01:56 | 22.20288 | 119.71413 | 14690 ft | 345 kts | 257° |
| 2026-04-25 01:56 | 22.19741 | 119.68878 | 15214 ft | 349 kts | 257° |
| 2026-04-25 01:57 | 22.18446 | 119.62894 | 16392 ft | 356 kts | 257° |
| 2026-04-25 01:57 | 22.18062 | 119.61131 | 16724 ft | 358 kts | 257° |
| 2026-04-25 01:57 | 22.17489 | 119.58503 | 17236 ft | 362 kts | 257° |
| 2026-04-25 01:58 | 22.16912 | 119.55851 | 17737 ft | 365 kts | 257° |
| 2026-04-25 01:58 | 22.16343 | 119.53169 | 18223 ft | 369 kts | 259° |
| 2026-04-25 01:58 | 22.16082 | 119.50404 | 18600 ft | 373 kts | 268° |
| 2026-04-25 01:58 | 22.16015 | 119.47597 | 19039 ft | 375 kts | 268° |
| 2026-04-25 01:59 | 22.15942 | 119.44778 | 19500 ft | 377 kts | 268° |
| 2026-04-25 01:59 | 22.15868 | 119.41947 | 19979 ft | 378 kts | 268° |
| 2026-04-25 01:59 | 22.15795 | 119.39108 | 20457 ft | 380 kts | 267° |
| 2026-04-25 01:59 | 22.15718 | 119.36257 | 20934 ft | 381 kts | 267° |
| 2026-04-25 02:00 | 22.15636 | 119.33396 | 21390 ft | 382 kts | 267° |
| 2026-04-25 02:00 | 22.15556 | 119.30521 | 21835 ft | 384 kts | 267° |
| 2026-04-25 02:00 | 22.15476 | 119.27638 | 22270 ft | 386 kts | 266° |
| 2026-04-25 02:00 | 22.15395 | 119.24741 | 22675 ft | 388 kts | 267° |
| 2026-04-25 02:01 | 22.15314 | 119.21825 | 23072 ft | 390 kts | 267° |
| 2026-04-25 02:01 | 22.15232 | 119.18892 | 23479 ft | 392 kts | 266° |
| 2026-04-25 02:01 | 22.15149 | 119.15986 | 23841 ft | 394 kts | 266° |
| 2026-04-25 02:01 | 22.15063 | 119.13031 | 24191 ft | 395 kts | 266° |
| 2026-04-25 02:02 | 22.14978 | 119.10065 | 24542 ft | 396 kts | 267° |
| 2026-04-25 02:02 | 22.15160 | 119.07091 | 24878 ft | 400 kts | 275° |
| 2026-04-25 02:02 | 22.15532 | 119.04117 | 25215 ft | 401 kts | 275° |
| 2026-04-25 02:02 | 22.15898 | 119.01132 | 25557 ft | 402 kts | 275° |
| 2026-04-25 02:03 | 22.16261 | 118.98138 | 25891 ft | 403 kts | 275° |
| 2026-04-25 02:03 | 22.16621 | 118.95137 | 26232 ft | 404 kts | 275° |
| 2026-04-25 02:03 | 22.16979 | 118.92122 | 26558 ft | 406 kts | 275° |
| 2026-04-25 02:03 | 22.17338 | 118.89099 | 26891 ft | 407 kts | 275° |
| 2026-04-25 02:04 | 22.17697 | 118.86067 | 27228 ft | 408 kts | 275° |
| 2026-04-25 02:04 | 22.18056 | 118.83027 | 27566 ft | 409 kts | 275° |
| 2026-04-25 02:04 | 22.18416 | 118.79976 | 27900 ft | 410 kts | 274° |
| 2026-04-25 02:04 | 22.18777 | 118.76917 | 28229 ft | 412 kts | 274° |
| 2026-04-25 02:05 | 22.19142 | 118.73846 | 28559 ft | 413 kts | 274° |
| 2026-04-25 02:05 | 22.19508 | 118.70773 | 28938 ft | 413 kts | 274° |
| 2026-04-25 02:05 | 22.19872 | 118.67710 | 29430 ft | 410 kts | 274° |
| 2026-04-25 02:05 | 22.20234 | 118.64666 | 29951 ft | 408 kts | 274° |
| 2026-04-25 02:06 | 22.20594 | 118.61643 | 30412 ft | 405 kts | 274° |
| 2026-04-25 02:06 | 22.20947 | 118.58635 | 30834 ft | 403 kts | 274° |
| 2026-04-25 02:06 | 22.21296 | 118.55644 | 31252 ft | 401 kts | 273° |
| 2026-04-25 02:06 | 22.21642 | 118.52667 | 31671 ft | 399 kts | 273° |
| 2026-04-25 02:07 | 22.21990 | 118.49703 | 31987 ft | 398 kts | 273° |
| 2026-04-25 02:07 | 22.22688 | 118.43759 | 32074 ft | 401 kts | 273° |
| 2026-04-25 02:08 | 22.23384 | 118.37776 | 32076 ft | 402 kts | 273° |
| 2026-04-25 02:08 | 22.24081 | 118.31782 | 32076 ft | 403 kts | 273° |
| 2026-04-25 02:09 | 22.24770 | 118.25782 | 32077 ft | 403 kts | 273° |
| 2026-04-25 02:09 | 22.25466 | 118.19783 | 32076 ft | 403 kts | 273° |
| 2026-04-25 02:10 | 22.26163 | 118.13783 | 32075 ft | 403 kts | 273° |
| 2026-04-25 02:10 | 22.26833 | 118.07782 | 32074 ft | 402 kts | 273° |
| 2026-04-25 02:11 | 22.27483 | 118.01781 | 32074 ft | 403 kts | 273° |
| 2026-04-25 02:11 | 22.28142 | 117.95778 | 32071 ft | 403 kts | 273° |
| 2026-04-25 02:12 | 22.28827 | 117.89779 | 32072 ft | 403 kts | 273° |
| 2026-04-25 02:12 | 22.29527 | 117.83779 | 32071 ft | 403 kts | 273° |
| 2026-04-25 02:13 | 22.30216 | 117.77775 | 32073 ft | 403 kts | 273° |
| 2026-04-25 02:13 | 22.30896 | 117.71771 | 32072 ft | 403 kts | 273° |
| 2026-04-25 02:14 | 22.31568 | 117.65766 | 32070 ft | 403 kts | 273° |
| 2026-04-25 02:14 | 22.32239 | 117.59762 | 32071 ft | 403 kts | 273° |
| 2026-04-25 02:15 | 22.32904 | 117.53798 | 32073 ft | 403 kts | 273° |
| 2026-04-25 02:15 | 22.33298 | 117.47793 | 32073 ft | 399 kts | 266° |
| 2026-04-25 02:16 | 22.33189 | 117.41792 | 32081 ft | 399 kts | 266° |
| 2026-04-25 02:16 | 22.33082 | 117.35791 | 32078 ft | 400 kts | 266° |
| 2026-04-25 02:17 | 22.32978 | 117.29791 | 32081 ft | 400 kts | 266° |
| 2026-04-25 02:17 | 22.32870 | 117.23791 | 32078 ft | 400 kts | 266° |
| 2026-04-25 02:18 | 22.32754 | 117.17790 | 32074 ft | 400 kts | 266° |
| 2026-04-25 02:18 | 22.32637 | 117.11787 | 32084 ft | 400 kts | 266° |
| 2026-04-25 02:19 | 22.32520 | 117.05784 | 32079 ft | 400 kts | 266° |
| 2026-04-25 02:19 | 22.32398 | 116.99780 | 32076 ft | 400 kts | 266° |
| 2026-04-25 02:20 | 22.32279 | 116.93774 | 32076 ft | 400 kts | 266° |
| 2026-04-25 02:20 | 22.32155 | 116.87768 | 32077 ft | 400 kts | 266° |
| 2026-04-25 02:21 | 22.32028 | 116.81762 | 32079 ft | 400 kts | 266° |
| 2026-04-25 02:21 | 22.31898 | 116.75761 | 32058 ft | 400 kts | 266° |
| 2026-04-25 02:22 | 22.31764 | 116.69799 | 32065 ft | 400 kts | 266° |
| 2026-04-25 02:22 | 22.31629 | 116.63798 | 32069 ft | 400 kts | 266° |
| 2026-04-25 02:23 | 22.31496 | 116.57797 | 32072 ft | 400 kts | 266° |
| 2026-04-25 02:23 | 22.31428 | 116.54795 | 31921 ft | 401 kts | 266° |
| 2026-04-25 02:23 | 22.31357 | 116.51784 | 31679 ft | 401 kts | 266° |
| 2026-04-25 02:23 | 22.31286 | 116.48767 | 31438 ft | 403 kts | 266° |
| 2026-04-25 02:24 | 22.31216 | 116.45741 | 31204 ft | 404 kts | 266° |
| 2026-04-25 02:24 | 22.31146 | 116.42699 | 30971 ft | 406 kts | 267° |
| 2026-04-25 02:24 | 22.31075 | 116.39650 | 30737 ft | 407 kts | 267° |
| 2026-04-25 02:24 | 22.31001 | 116.36588 | 30506 ft | 409 kts | 267° |
| 2026-04-25 02:25 | 22.30931 | 116.33517 | 30274 ft | 410 kts | 267° |
| 2026-04-25 02:25 | 22.30858 | 116.30435 | 30030 ft | 411 kts | 267° |
| 2026-04-25 02:25 | 22.30785 | 116.27343 | 29758 ft | 411 kts | 267° |
| 2026-04-25 02:25 | 22.30711 | 116.24257 | 29495 ft | 411 kts | 267° |
| 2026-04-25 02:26 | 22.30632 | 116.21218 | 29231 ft | 410 kts | 267° |
| 2026-04-25 02:26 | 22.30552 | 116.18144 | 28965 ft | 409 kts | 267° |
| 2026-04-25 02:26 | 22.30473 | 116.15073 | 28706 ft | 408 kts | 267° |
| 2026-04-25 02:26 | 22.30394 | 116.12011 | 28449 ft | 407 kts | 267° |
| 2026-04-25 02:27 | 22.30318 | 116.08963 | 28196 ft | 406 kts | 268° |
| 2026-04-25 02:27 | 22.30241 | 116.05913 | 27942 ft | 405 kts | 267° |
| 2026-04-25 02:27 | 22.30159 | 116.02874 | 27689 ft | 405 kts | 267° |
| 2026-04-25 02:27 | 22.30076 | 115.99842 | 27440 ft | 404 kts | 268° |
| 2026-04-25 02:28 | 22.29996 | 115.96816 | 27186 ft | 403 kts | 268° |
| 2026-04-25 02:28 | 22.29915 | 115.93796 | 26947 ft | 402 kts | 268° |
| 2026-04-25 02:28 | 22.29835 | 115.90776 | 26699 ft | 402 kts | 268° |
| 2026-04-25 02:28 | 22.29753 | 115.87761 | 26459 ft | 402 kts | 268° |
| 2026-04-25 02:29 | 22.29668 | 115.84749 | 26221 ft | 401 kts | 268° |
| 2026-04-25 02:29 | 22.29585 | 115.81744 | 25986 ft | 400 kts | 268° |
| 2026-04-25 02:29 | 22.29507 | 115.78743 | 25748 ft | 399 kts | 268° |
| 2026-04-25 02:29 | 22.29431 | 115.75749 | 25515 ft | 399 kts | 268° |
| 2026-04-25 02:30 | 22.29354 | 115.72757 | 25283 ft | 398 kts | 268° |
| 2026-04-25 02:30 | 22.29274 | 115.69773 | 25053 ft | 397 kts | 268° |
| 2026-04-25 02:30 | 22.29191 | 115.66797 | 24825 ft | 397 kts | 268° |
| 2026-04-25 02:30 | 22.29109 | 115.63823 | 24600 ft | 396 kts | 268° |
| 2026-04-25 02:31 | 22.29028 | 115.60849 | 24375 ft | 396 kts | 268° |
| 2026-04-25 02:31 | 22.28951 | 115.57880 | 24153 ft | 396 kts | 268° |
| 2026-04-25 02:31 | 22.28873 | 115.54910 | 23932 ft | 395 kts | 268° |
| 2026-04-25 02:31 | 22.28792 | 115.51946 | 23713 ft | 395 kts | 268° |
| 2026-04-25 02:32 | 22.28709 | 115.48988 | 23466 ft | 394 kts | 268° |
| 2026-04-25 02:32 | 22.28625 | 115.46039 | 23204 ft | 393 kts | 268° |
| 2026-04-25 02:32 | 22.28541 | 115.43097 | 22945 ft | 391 kts | 269° |
| 2026-04-25 02:32 | 22.28456 | 115.40174 | 22599 ft | 387 kts | 269° |
| 2026-04-25 02:33 | 22.28371 | 115.37287 | 22071 ft | 383 kts | 269° |
| 2026-04-25 02:33 | 22.28286 | 115.34422 | 21570 ft | 380 kts | 269° |
| 2026-04-25 02:33 | 22.28200 | 115.31580 | 21056 ft | 377 kts | 269° |
| 2026-04-25 02:33 | 22.28113 | 115.28800 | 20578 ft | 374 kts | 269° |
| 2026-04-25 02:34 | 22.28026 | 115.26005 | 20085 ft | 371 kts | 269° |
| 2026-04-25 02:34 | 22.27942 | 115.23231 | 19591 ft | 369 kts | 269° |
| 2026-04-25 02:34 | 22.27858 | 115.20476 | 19094 ft | 366 kts | 269° |
| 2026-04-25 02:34 | 22.27772 | 115.17735 | 18585 ft | 365 kts | 269° |
| 2026-04-25 02:35 | 22.27687 | 115.15005 | 18039 ft | 363 kts | 269° |
| 2026-04-25 02:35 | 22.27608 | 115.12292 | 17509 ft | 360 kts | 269° |
| 2026-04-25 02:35 | 22.27528 | 115.09603 | 16987 ft | 357 kts | 269° |
| 2026-04-25 02:35 | 22.27445 | 115.06938 | 16464 ft | 354 kts | 269° |
| 2026-04-25 02:36 | 22.27360 | 115.04290 | 15943 ft | 352 kts | 269° |
| 2026-04-25 02:36 | 22.27275 | 115.01655 | 15415 ft | 350 kts | 268° |
| 2026-04-25 02:36 | 22.27189 | 114.99031 | 14885 ft | 349 kts | 268° |
| 2026-04-25 02:36 | 22.27103 | 114.96417 | 14359 ft | 348 kts | 268° |
| 2026-04-25 02:37 | 22.27017 | 114.93810 | 13820 ft | 347 kts | 268° |
| 2026-04-25 02:37 | 22.26933 | 114.91212 | 13247 ft | 345 kts | 268° |
| 2026-04-25 02:37 | 22.26846 | 114.88630 | 12708 ft | 343 kts | 268° |
| 2026-04-25 02:37 | 22.26760 | 114.86056 | 12172 ft | 343 kts | 268° |
| 2026-04-25 02:38 | 22.26673 | 114.83489 | 11640 ft | 342 kts | 268° |
| 2026-04-25 02:38 | 22.26531 | 114.80936 | 11152 ft | 339 kts | 261° |
| 2026-04-25 02:38 | 22.25895 | 114.78532 | 10926 ft | 330 kts | 247° |
| 2026-04-25 02:38 | 22.24734 | 114.76427 | 10682 ft | 326 kts | 232° |
| 2026-04-25 02:39 | 22.23161 | 114.74672 | 10459 ft | 326 kts | 225° |
| 2026-04-25 02:39 | 22.21517 | 114.72987 | 10229 ft | 325 kts | 225° |
| 2026-04-25 02:39 | 22.19880 | 114.71313 | 10009 ft | 321 kts | 225° |
| 2026-04-25 02:39 | 22.18290 | 114.69685 | 9888 ft | 309 kts | 225° |
| 2026-04-25 02:40 | 22.16757 | 114.68113 | 9754 ft | 299 kts | 225° |
| 2026-04-25 02:40 | 22.15275 | 114.66590 | 9626 ft | 290 kts | 225° |
| 2026-04-25 02:40 | 22.13821 | 114.65093 | 9496 ft | 288 kts | 225° |
| 2026-04-25 02:40 | 22.12371 | 114.63603 | 9368 ft | 287 kts | 225° |
| 2026-04-25 02:41 | 22.10929 | 114.62122 | 9243 ft | 286 kts | 225° |
| 2026-04-25 02:41 | 22.09491 | 114.60648 | 9115 ft | 284 kts | 226° |
| 2026-04-25 02:41 | 22.08068 | 114.59188 | 8987 ft | 281 kts | 226° |
| 2026-04-25 02:41 | 22.06651 | 114.57734 | 8863 ft | 281 kts | 226° |
| 2026-04-25 02:42 | 22.05259 | 114.56305 | 8740 ft | 281 kts | 225° |
| 2026-04-25 02:42 | 22.03845 | 114.54854 | 8611 ft | 280 kts | 225° |
| 2026-04-25 02:42 | 22.02531 | 114.53320 | 8489 ft | 279 kts | 236° |
| 2026-04-25 02:42 | 22.01598 | 114.51500 | 8359 ft | 277 kts | 249° |
| 2026-04-25 02:43 | 22.00872 | 114.49582 | 8246 ft | 276 kts | 249° |
| 2026-04-25 02:43 | 22.00146 | 114.47681 | 8128 ft | 273 kts | 248° |
| 2026-04-25 02:43 | 21.99420 | 114.45781 | 7992 ft | 274 kts | 248° |
| 2026-04-25 02:43 | 21.98694 | 114.43888 | 7882 ft | 272 kts | 248° |
| 2026-04-25 02:44 | 21.97973 | 114.42008 | 7760 ft | 271 kts | 249° |
| 2026-04-25 02:44 | 21.97252 | 114.40126 | 7635 ft | 273 kts | 248° |
| 2026-04-25 02:44 | 21.96531 | 114.38242 | 7521 ft | 271 kts | 248° |
| 2026-04-25 02:44 | 21.96053 | 114.36992 | 7437 ft | 273 kts | 248° |
| 2026-04-25 02:45 | 21.95328 | 114.35100 | 7320 ft | 274 kts | 248° |
| 2026-04-25 02:45 | 21.94600 | 114.33207 | 7200 ft | 273 kts | 248° |
| 2026-04-25 02:45 | 21.93878 | 114.31323 | 7085 ft | 272 kts | 248° |
| 2026-04-25 02:45 | 21.93158 | 114.29441 | 6964 ft | 272 kts | 248° |
| 2026-04-25 02:46 | 21.92440 | 114.27570 | 6842 ft | 270 kts | 248° |
| 2026-04-25 02:46 | 21.91718 | 114.25703 | 6732 ft | 270 kts | 248° |
| 2026-04-25 02:46 | 21.90997 | 114.23842 | 6603 ft | 269 kts | 248° |
| 2026-04-25 02:46 | 21.90285 | 114.21980 | 6492 ft | 268 kts | 250° |
| 2026-04-25 02:47 | 21.89899 | 114.20023 | 6364 ft | 268 kts | 267° |
| 2026-04-25 02:47 | 21.90082 | 114.18034 | 6241 ft | 268 kts | 284° |
| 2026-04-25 02:47 | 21.90802 | 114.16182 | 6127 ft | 270 kts | 298° |
| 2026-04-25 02:47 | 21.91722 | 114.14424 | 5987 ft | 268 kts | 298° |
| 2026-04-25 02:48 | 21.92633 | 114.12671 | 5874 ft | 268 kts | 298° |
| 2026-04-25 02:48 | 21.93536 | 114.10921 | 5765 ft | 268 kts | 297° |
| 2026-04-25 02:48 | 21.94439 | 114.09169 | 5622 ft | 268 kts | 298° |
| 2026-04-25 02:48 | 21.95340 | 114.07420 | 5514 ft | 267 kts | 298° |
| 2026-04-25 02:49 | 21.96241 | 114.05673 | 5384 ft | 267 kts | 298° |
| 2026-04-25 02:49 | 21.97144 | 114.03923 | 5262 ft | 268 kts | 298° |
| 2026-04-25 02:49 | 21.98048 | 114.02170 | 5142 ft | 267 kts | 298° |
| 2026-04-25 02:49 | 21.98952 | 114.00419 | 5023 ft | 267 kts | 298° |
| 2026-04-25 02:50 | 21.99854 | 113.98670 | 4905 ft | 267 kts | 298° |
| 2026-04-25 02:50 | 22.00756 | 113.96923 | 4785 ft | 266 kts | 298° |
| 2026-04-25 02:50 | 22.01655 | 113.95179 | 4658 ft | 266 kts | 298° |
| 2026-04-25 02:50 | 22.02555 | 113.93434 | 4535 ft | 266 kts | 298° |
| 2026-04-25 02:51 | 22.03440 | 113.91716 | 4411 ft | 266 kts | 298° |
| 2026-04-25 02:51 | 22.04336 | 113.89975 | 4279 ft | 265 kts | 298° |
| 2026-04-25 02:51 | 22.05229 | 113.88236 | 4167 ft | 265 kts | 298° |
| 2026-04-25 02:51 | 22.06121 | 113.86499 | 4040 ft | 265 kts | 298° |
| 2026-04-25 02:52 | 22.07010 | 113.84767 | 3918 ft | 264 kts | 298° |
| 2026-04-25 02:52 | 22.07901 | 113.83034 | 3795 ft | 263 kts | 298° |
| 2026-04-25 02:52 | 22.08791 | 113.81306 | 3679 ft | 263 kts | 298° |
| 2026-04-25 02:52 | 22.09681 | 113.79579 | 3558 ft | 264 kts | 299° |
| 2026-04-25 02:53 | 22.10783 | 113.78006 | 3438 ft | 264 kts | 315° |
| 2026-04-25 02:53 | 22.12248 | 113.76823 | 3321 ft | 264 kts | 331° |
| 2026-04-25 02:53 | 22.13911 | 113.75979 | 3193 ft | 264 kts | 335° |
| 2026-04-25 02:53 | 22.15581 | 113.75151 | 3079 ft | 264 kts | 335° |
| 2026-04-25 02:54 | 22.17243 | 113.74321 | 2994 ft | 261 kts | 335° |
| 2026-04-25 02:54 | 22.18823 | 113.73531 | 2997 ft | 238 kts | 335° |
| 2026-04-25 02:54 | 22.20261 | 113.72852 | 2995 ft | 214 kts | 345° |
| 2026-04-25 02:54 | 22.21669 | 113.72773 | 2898 ft | 196 kts | 13° |
| 2026-04-25 02:55 | 22.22864 | 113.73349 | 2795 ft | 185 kts | 33° |
| 2026-04-25 02:55 | 22.23931 | 113.74100 | 2666 ft | 181 kts | 33° |
| 2026-04-25 02:55 | 22.24957 | 113.74818 | 2544 ft | 172 kts | 33° |
| 2026-04-25 02:55 | 22.25971 | 113.75547 | 2413 ft | 177 kts | 39° |
| 2026-04-25 02:56 | 22.26758 | 113.76539 | 2294 ft | 175 kts | 61° |
| 2026-04-25 02:56 | 22.27203 | 113.77757 | 2214 ft | 175 kts | 70° |
| 2026-04-25 02:56 | 22.27602 | 113.78995 | 2092 ft | 174 kts | 70° |
| 2026-04-25 02:56 | 22.28000 | 113.80225 | 1882 ft | 172 kts | 69° |
| 2026-04-25 02:57 | 22.28395 | 113.81446 | 1670 ft | 172 kts | 69° |
| 2026-04-25 02:57 | 22.28786 | 113.82657 | 1443 ft | 169 kts | 70° |
| 2026-04-25 02:57 | 22.29151 | 113.83788 | 1222 ft | 151 kts | 70° |
| 2026-04-25 02:57 | 22.29490 | 113.84835 | 1032 ft | 148 kts | 69° |
| 2026-04-25 02:58 | 22.29831 | 113.85891 | 845 ft | 147 kts | 68° |
| 2026-04-25 02:58 | 22.30163 | 113.86922 | 638 ft | 147 kts | 69° |
| 2026-04-25 02:58 | 22.30505 | 113.87968 | 477 ft | 148 kts | 68° |
| 2026-04-25 02:58 | 22.30848 | 113.89024 | 273 ft | 149 kts | 69° |
| 2026-04-25 02:59 | 22.31173 | 113.90081 | 64 ft | 149 kts | 69° |
| 2026-04-25 02:59 | 22.31496 | 113.91044 | 34 ft | 119 kts | 68° |
| 2026-04-25 02:59 | 22.31767 | 113.91883 | 33 ft | 115 kts | 72° |
| 2026-04-25 02:59 | 22.31935 | 113.92434 | 34 ft | 34 kts | 86° |
| 2026-04-25 03:00 | 22.31909 | 113.92676 | 33 ft | 20 kts | 115° |
| 2026-04-25 03:00 | 22.31851 | 113.92689 | 32 ft | 6 kts | 225° |
| 2026-04-25 03:00 | 22.31823 | 113.92637 | 32 ft | 11 kts | 241° |
| 2026-04-25 03:00 | 22.31790 | 113.92535 | 32 ft | 18 kts | 251° |
| 2026-04-25 03:01 | 22.31743 | 113.92382 | 32 ft | 25 kts | 250° |
| 2026-04-25 03:01 | 22.31677 | 113.92185 | 32 ft | 31 kts | 251° |
| 2026-04-25 03:01 | 22.31601 | 113.91943 | 32 ft | 37 kts | 250° |
| 2026-04-25 03:01 | 22.31510 | 113.91664 | 31 ft | 39 kts | 251° |
| 2026-04-25 03:02 | 22.31433 | 113.91443 | 32 ft | 20 kts | 224° |
| 2026-04-25 03:02 | 22.31298 | 113.91463 | 32 ft | 21 kts | 161° |
| 2026-04-25 03:02 | 22.31148 | 113.91518 | 32 ft | 24 kts | 162° |
| 2026-04-25 03:02 | 22.30983 | 113.91579 | 32 ft | 26 kts | 161° |
| 2026-04-25 03:03 | 22.30809 | 113.91644 | 32 ft | 22 kts | 160° |
| 2026-04-25 03:03 | 22.30798 | 113.91724 | 31 ft | 8 kts | 70° |
| 2026-04-25 03:03 | 22.30806 | 113.91751 | 32 ft | 2 kts | 71° |
| 2026-04-25 03:03 | 22.30807 | 113.91754 | 32 ft | 0 kts | 71° |